Time;durP1;ratioP1;P1;durP2;ratioP2;P2;SDS_P1;SDS_P2;PMS_P1;PMS_P2;Temp;Humidity;BMP_temperature;BMP_pressure;BME280_temperature;BME280_humidity;BME280_pressure;Samples;Min_cycle;Max_cycle;Signal;HPM_P1;HPM_P2
2023/01/29 00:01:14;;;;;;;5.23;4.73;;;0.00;99.90;;;;;;5120029;28;20216;-71
2023/01/29 00:03:41;;;;;;;5.47;4.97;;;0.00;99.90;;;;;;5107524;28;20300;-70
2023/01/29 00:06:11;;;;;;;6.30;4.90;;;0.00;99.90;;;;;;5107605;28;20615;-71
2023/01/29 00:08:39;;;;;;;6.57;5.00;;;0.00;99.90;;;;;;5107778;28;20202;-71
2023/01/29 00:11:07;;;;;;;6.17;5.27;;;0.00;99.90;;;;;;5111642;28;20216;-70
2023/01/29 00:13:35;;;;;;;5.83;5.20;;;0.00;99.90;;;;;;5111686;28;20237;-70
2023/01/29 00:16:03;;;;;;;5.97;5.17;;;0.00;99.90;;;;;;5111178;28;20748;-70
2023/01/29 00:18:30;;;;;;;6.87;5.07;;;0.00;99.90;;;;;;5116506;27;20229;-70
2023/01/29 00:20:57;;;;;;;6.03;5.43;;;0.00;99.90;;;;;;5129164;27;20296;-70
2023/01/29 00:23:25;;;;;;;6.50;5.60;;;0.00;99.90;;;;;;5110754;28;20730;-70
2023/01/29 00:25:52;;;;;;;6.00;5.50;;;0.00;99.90;;;;;;5111137;27;20760;-70
2023/01/29 00:28:19;;;;;;;6.93;6.10;;;0.00;99.90;;;;;;5113814;27;20244;-69
2023/01/29 00:30:46;;;;;;;5.63;5.17;;;0.10;99.90;;;;;;5131501;27;20240;-70
2023/01/29 00:33:13;;;;;;;6.07;5.47;;;0.00;99.90;;;;;;5116456;27;20312;-70
2023/01/29 00:35:41;;;;;;;7.70;5.10;;;0.00;99.90;;;;;;5110423;28;20699;-70
2023/01/29 00:38:07;;;;;;;11.13;5.47;;;0.10;99.90;;;;;;5129053;27;20229;-70
2023/01/29 00:46:09;;;;;;;6.80;6.20;;;0.10;99.90;;;;;;5117612;27;20198;-71
2023/01/29 00:48:36;;;;;;;6.70;6.10;;;0.10;99.90;;;;;;5117410;27;20296;-71
2023/01/29 00:51:03;;;;;;;6.97;5.70;;;0.10;99.90;;;;;;5131347;27;20245;-71
2023/01/29 00:53:30;;;;;;;7.13;6.30;;;0.10;99.90;;;;;;5130861;27;20225;-71
2023/01/29 00:55:58;;;;;;;7.07;6.37;;;0.10;99.90;;;;;;5124522;27;20221;-70
2023/01/29 00:58:27;;;;;;;7.07;6.03;;;0.10;99.90;;;;;;5130201;27;20795;-71
2023/01/29 01:00:54;;;;;;;6.57;5.87;;;0.10;99.90;;;;;;5131419;27;20205;-70
2023/01/29 01:03:20;;;;;;;6.83;6.23;;;0.20;99.90;;;;;;5130996;27;20212;-71
2023/01/29 01:05:47;;;;;;;7.83;6.60;;;0.10;99.90;;;;;;5130613;27;20204;-71
2023/01/29 01:11:02;;;;;;;7.60;6.80;;;0.10;99.90;;;;;;5130484;27;20660;-71
2023/01/29 01:13:31;;;;;;;8.00;6.60;;;0.20;99.90;;;;;;5130096;27;20316;-71
2023/01/29 01:15:57;;;;;;;7.23;6.53;;;0.10;99.90;;;;;;5129538;27;20211;-71
2023/01/29 01:18:24;;;;;;;7.63;6.73;;;0.10;99.90;;;;;;5131763;27;20213;-71
2023/01/29 01:20:58;;;;;;;8.27;6.63;;;0.10;99.90;;;;;;5109662;28;20951;-71
2023/01/29 01:23:26;;;;;;;7.73;7.03;;;0.10;99.90;;;;;;5109659;28;20719;-70
2023/01/29 01:25:54;;;;;;;7.77;6.77;;;0.10;99.90;;;;;;5109651;28;20861;-70
2023/01/29 01:28:22;;;;;;;7.93;6.97;;;0.10;99.90;;;;;;5110020;28;20233;-70
2023/01/29 01:30:49;;;;;;;7.53;6.83;;;0.10;99.90;;;;;;5109342;28;20347;-70
2023/01/29 01:33:16;;;;;;;8.87;7.07;;;0.10;99.90;;;;;;5118194;27;20229;-71
2023/01/29 01:35:43;;;;;;;8.60;7.07;;;0.10;99.90;;;;;;5129979;27;20200;-71
2023/01/29 01:38:10;;;;;;;7.83;7.03;;;0.10;99.90;;;;;;5130339;27;20313;-71
2023/01/29 01:40:43;;;;;;;7.57;6.77;;;0.10;99.90;;;;;;5129486;27;20281;-71
2023/01/29 01:43:11;;;;;;;8.77;7.50;;;0.10;99.90;;;;;;5130243;27;20604;-71
2023/01/29 01:45:41;;;;;;;8.07;7.10;;;0.10;99.90;;;;;;5130282;27;20292;-72
2023/01/29 01:48:12;;;;;;;8.10;7.30;;;0.10;99.90;;;;;;5130600;27;20213;-72
2023/01/29 01:50:43;;;;;;;7.50;6.73;;;0.20;99.90;;;;;;5130037;27;20197;-72
2023/01/29 01:53:13;;;;;;;7.97;6.67;;;0.20;99.90;;;;;;5129510;27;20770;-72
2023/01/29 01:55:44;;;;;;;8.00;6.93;;;0.20;99.90;;;;;;5125769;27;20881;-72
2023/01/29 01:58:15;;;;;;;10.53;7.73;;;0.20;99.90;;;;;;5109048;28;20318;-72
2023/01/29 02:00:43;;;;;;;8.73;7.77;;;0.20;99.90;;;;;;5108999;28;20210;-72
2023/01/29 02:11:37;;;;;;;10.00;7.77;;;0.20;99.90;;;;;;5125954;27;20195;-72
2023/01/29 02:14:04;;;;;;;8.53;7.73;;;0.20;99.90;;;;;;5124752;27;20332;-72
2023/01/29 02:16:34;;;;;;;8.73;7.80;;;0.20;99.90;;;;;;5109089;28;20226;-72
2023/01/29 02:19:02;;;;;;;8.23;7.37;;;0.20;99.90;;;;;;5127331;27;20596;-72
2023/01/29 02:22:24;;;;;;;8.50;7.43;;;0.20;99.90;;;;;;5129863;27;20286;-72
2023/01/29 02:25:11;;;;;;;8.83;7.93;;;0.20;99.90;;;;;;5101631;27;20268;-72
2023/01/29 02:28:17;;;;;;;11.13;7.93;;;0.20;99.90;;;;;;5150007;27;20955;-72
2023/01/29 02:30:53;;;;;;;9.93;8.30;;;0.20;99.90;;;;;;5028592;28;20640;-72
2023/01/29 02:33:30;;;;;;;9.67;8.20;;;0.20;99.90;;;;;;5024691;28;20223;-72
2023/01/29 02:36:05;;;;;;;9.17;7.57;;;0.20;99.90;;;;;;5072595;28;20316;-72
2023/01/29 02:38:40;;;;;;;9.27;7.83;;;0.20;99.90;;;;;;5108419;28;20288;-72
2023/01/29 02:41:14;;;;;;;9.30;7.90;;;0.20;99.90;;;;;;5110218;27;20300;-72
2023/01/29 02:43:46;;;;;;;10.07;7.83;;;0.20;99.90;;;;;;5108648;28;20194;-72
2023/01/29 02:46:23;;;;;;;8.33;7.53;;;0.20;99.90;;;;;;5108672;28;20190;-71
2023/01/29 02:48:57;;;;;;;8.93;7.90;;;0.20;99.90;;;;;;5109842;27;20301;-72
2023/01/29 02:51:29;;;;;;;9.83;8.00;;;0.30;99.90;;;;;;5128855;27;20193;-72
2023/01/29 02:54:02;;;;;;;9.43;7.93;;;0.30;99.90;;;;;;5128970;27;20775;-72
2023/01/29 02:56:35;;;;;;;11.73;7.77;;;0.30;99.90;;;;;;5129146;27;20731;-73
2023/01/29 02:59:07;;;;;;;9.53;8.07;;;0.30;99.90;;;;;;5128793;27;20313;-72
2023/01/29 03:01:39;;;;;;;9.33;8.03;;;0.20;99.90;;;;;;5129128;27;20232;-73
2023/01/29 03:04:10;;;;;;;9.27;7.67;;;0.20;99.90;;;;;;5115376;27;20205;-70
2023/01/29 03:06:41;;;;;;;9.57;7.93;;;0.20;99.90;;;;;;5114119;28;20289;-70
2023/01/29 03:09:13;;;;;;;9.97;7.80;;;0.30;99.90;;;;;;5128558;27;20300;-71
2023/01/29 03:11:44;;;;;;;8.50;7.60;;;0.20;99.90;;;;;;5112081;28;20309;-71
2023/01/29 03:14:15;;;;;;;10.33;8.33;;;0.20;99.90;;;;;;5108073;28;20260;-70
2023/01/29 03:16:49;;;;;;;12.20;8.43;;;0.20;99.90;;;;;;5107829;28;20218;-71
2023/01/29 03:19:20;;;;;;;9.57;7.67;;;0.20;99.90;;;;;;5107826;28;20196;-71
2023/01/29 03:21:57;;;;;;;9.73;7.53;;;0.20;99.90;;;;;;5108000;28;20629;-71
2023/01/29 03:32:52;;;;;;;10.60;8.40;;;0.30;99.90;;;;;;5128007;28;20645;-71
2023/01/29 03:35:35;;;;;;;9.00;7.97;;;0.30;99.90;;;;;;5128563;28;20308;-71
2023/01/29 03:38:03;;;;;;;12.90;8.60;;;0.30;99.90;;;;;;5128342;28;20712;-71
2023/01/29 03:40:40;;;;;;;9.70;8.43;;;0.30;99.90;;;;;;5128317;28;20278;-70
2023/01/29 03:43:11;;;;;;;10.30;7.60;;;0.30;99.90;;;;;;5128678;27;20281;-71
2023/01/29 03:45:46;;;;;;;8.73;7.83;;;0.30;99.90;;;;;;5125803;27;20236;-71
2023/01/29 03:48:21;;;;;;;9.10;7.63;;;0.30;99.90;;;;;;5111520;28;20660;-71
2023/01/29 03:50:54;;;;;;;9.00;8.10;;;0.30;99.90;;;;;;5111889;27;20258;-71
2023/01/29 03:53:25;;;;;;;10.37;8.70;;;0.30;99.90;;;;;;5111793;28;20234;-71
2023/01/29 03:55:58;;;;;;;12.43;8.97;;;0.30;99.90;;;;;;5125520;27;20280;-71
2023/01/29 03:58:34;;;;;;;11.30;8.90;;;0.30;99.90;;;;;;5111467;28;20328;-71
2023/01/29 04:01:03;;;;;;;13.30;9.00;;;0.20;99.90;;;;;;5111736;28;20277;-71
2023/01/29 04:03:35;;;;;;;10.50;8.50;;;0.20;99.90;;;;;;5122291;27;20566;-70
2023/01/29 04:06:09;;;;;;;11.10;9.40;;;0.20;99.90;;;;;;5131755;27;20296;-70
2023/01/29 04:08:47;;;;;;;10.23;8.87;;;0.20;99.90;;;;;;5111589;28;20197;-70
2023/01/29 04:11:18;;;;;;;12.00;9.30;;;0.10;99.90;;;;;;5111453;28;20277;-71
2023/01/29 04:13:46;;;;;;;10.60;9.17;;;0.10;99.90;;;;;;5111424;28;20233;-70
2023/01/29 04:16:17;;;;;;;10.90;9.33;;;0.10;99.90;;;;;;5129852;27;20290;-71
2023/01/29 04:18:48;;;;;;;11.10;9.53;;;0.20;99.90;;;;;;5123539;27;20234;-71
2023/01/29 04:21:15;;;;;;;11.27;9.57;;;0.10;99.90;;;;;;5111237;28;20195;-71
2023/01/29 04:23:42;;;;;;;13.57;10.43;;;0.10;99.90;;;;;;5130461;27;20248;-70
2023/01/29 04:26:28;;;;;;;13.53;10.13;;;0.10;99.90;;;;;;5129374;27;20204;-71
2023/01/29 04:29:09;;;;;;;12.37;9.97;;;0.10;99.90;;;;;;5111258;28;20281;-71
2023/01/29 04:31:43;;;;;;;18.37;9.93;;;0.10;99.90;;;;;;5111087;28;20271;-71
2023/01/29 04:34:20;;;;;;;15.03;10.53;;;0.10;99.90;;;;;;5110752;28;20257;-71
2023/01/29 04:36:59;;;;;;;13.23;10.50;;;0.10;99.90;;;;;;5110802;28;20225;-71
2023/01/29 04:39:35;;;;;;;14.33;10.17;;;0.00;99.90;;;;;;5121327;27;20189;-71
2023/01/29 04:42:11;;;;;;;15.60;10.33;;;0.10;99.90;;;;;;5131332;27;20788;-71
2023/01/29 04:44:43;;;;;;;12.63;9.97;;;0.10;99.90;;;;;;5131364;27;20254;-71
2023/01/29 04:47:22;;;;;;;14.43;10.67;;;0.10;99.90;;;;;;5143290;27;20291;-71
2023/01/29 04:50:00;;;;;;;16.17;11.13;;;0.10;99.90;;;;;;5134060;27;20212;-72
2023/01/29 04:52:39;;;;;;;14.40;10.53;;;0.10;99.90;;;;;;5110637;27;20700;-72
2023/01/29 04:55:12;;;;;;;14.27;10.50;;;0.00;99.90;;;;;;5109836;28;20763;-72
2023/01/29 04:57:48;;;;;;;14.50;11.10;;;0.00;99.90;;;;;;5110647;28;20238;-72
2023/01/29 05:00:20;;;;;;;13.30;10.83;;;0.10;99.90;;;;;;5126021;27;20258;-72
2023/01/29 05:02:48;;;;;;;15.17;11.20;;;0.10;99.90;;;;;;5129192;27;20218;-72
2023/01/29 05:05:19;;;;;;;16.13;11.00;;;0.10;99.90;;;;;;5131334;27;20627;-72
2023/01/29 05:07:47;;;;;;;14.27;10.80;;;0.10;99.90;;;;;;5130354;27;20277;-71
2023/01/29 05:10:17;;;;;;;14.63;11.37;;;0.10;99.90;;;;;;5123133;27;20198;-71
2023/01/29 05:12:49;;;;;;;16.60;10.77;;;0.10;99.90;;;;;;5110388;28;20304;-71
2023/01/29 05:15:20;;;;;;;14.67;10.67;;;0.10;99.90;;;;;;5110106;28;20281;-71
2023/01/29 05:17:47;;;;;;;15.30;11.30;;;0.10;99.90;;;;;;5114444;27;20194;-71
2023/01/29 05:20:14;;;;;;;16.43;10.57;;;0.10;99.90;;;;;;5130657;27;20205;-71
2023/01/29 05:22:43;;;;;;;15.70;11.40;;;0.10;99.90;;;;;;5130478;27;20296;-71
2023/01/29 05:25:21;;;;;;;14.63;10.80;;;0.10;99.90;;;;;;5130680;27;20300;-71
2023/01/29 05:28:05;;;;;;;14.63;11.63;;;0.10;99.90;;;;;;5130517;27;20280;-71
2023/01/29 05:30:37;;;;;;;15.60;10.83;;;0.10;99.90;;;;;;5130231;27;20201;-70
2023/01/29 05:33:10;;;;;;;15.17;11.33;;;0.20;99.90;;;;;;5130459;27;20241;-70
2023/01/29 05:35:37;;;;;;;15.53;11.83;;;0.20;99.90;;;;;;5129859;27;20257;-70
2023/01/29 05:38:05;;;;;;;17.87;12.07;;;0.20;99.90;;;;;;5130059;27;20207;-71
2023/01/29 05:40:32;;;;;;;16.70;12.30;;;0.20;99.90;;;;;;5130429;27;20703;-72
2023/01/29 05:42:59;;;;;;;18.97;11.90;;;0.20;99.90;;;;;;5130381;27;20197;-71
2023/01/29 05:45:26;;;;;;;17.50;12.10;;;0.20;99.90;;;;;;5130102;27;20300;-71
2023/01/29 05:47:56;;;;;;;17.93;12.33;;;0.20;99.90;;;;;;5128815;27;20296;-72
2023/01/29 05:50:24;;;;;;;16.83;11.77;;;0.30;99.90;;;;;;5112234;27;20206;-72
2023/01/29 05:52:56;;;;;;;18.40;12.70;;;0.30;99.90;;;;;;5130176;27;20209;-71
2023/01/29 05:55:24;;;;;;;19.43;11.80;;;0.30;99.90;;;;;;5127750;27;20305;-72
2023/01/29 05:57:51;;;;;;;16.00;12.00;;;0.30;99.90;;;;;;5122243;27;20241;-70
2023/01/29 06:00:19;;;;;;;16.10;11.93;;;0.30;99.90;;;;;;5129651;27;20212;-70
2023/01/29 06:02:46;;;;;;;15.00;11.43;;;0.30;99.90;;;;;;5128885;27;20197;-70
2023/01/29 06:05:13;;;;;;;15.93;11.87;;;0.30;99.90;;;;;;5113585;27;20198;-70
2023/01/29 06:07:44;;;;;;;16.63;11.70;;;0.30;99.90;;;;;;5108262;28;20202;-70
2023/01/29 06:10:12;;;;;;;15.97;11.17;;;0.30;99.90;;;;;;5108991;28;20190;-70
2023/01/29 06:12:41;;;;;;;16.03;12.03;;;0.30;99.90;;;;;;5108837;28;20210;-70
2023/01/29 06:15:08;;;;;;;16.87;12.40;;;0.30;99.90;;;;;;5122191;27;20316;-70
2023/01/29 06:17:35;;;;;;;14.30;11.33;;;0.30;99.90;;;;;;5128656;27;20296;-72
2023/01/29 06:20:02;;;;;;;16.93;12.37;;;0.30;99.90;;;;;;5124157;27;20243;-72
2023/01/29 06:22:29;;;;;;;15.83;11.77;;;0.40;99.90;;;;;;5120459;27;20237;-72
2023/01/29 06:24:56;;;;;;;15.33;11.97;;;0.40;99.90;;;;;;5109095;28;20407;-72
2023/01/29 06:27:23;;;;;;;15.50;11.77;;;0.40;99.90;;;;;;5121471;27;20288;-72
2023/01/29 06:29:51;;;;;;;16.03;11.67;;;0.40;99.90;;;;;;5121757;27;20551;-72
2023/01/29 06:32:18;;;;;;;16.00;11.67;;;0.40;99.90;;;;;;5109116;28;20206;-72
2023/01/29 06:34:45;;;;;;;15.87;12.17;;;0.40;99.90;;;;;;5117898;27;20264;-70
2023/01/29 06:37:12;;;;;;;15.87;11.50;;;0.40;99.90;;;;;;5129047;27;20251;-70
2023/01/29 06:39:39;;;;;;;14.80;11.97;;;0.40;99.90;;;;;;5128224;27;20564;-71
2023/01/29 06:42:06;;;;;;;14.73;11.27;;;0.40;99.90;;;;;;5129173;27;20395;-71
2023/01/29 06:44:33;;;;;;;14.70;11.43;;;0.50;99.90;;;;;;5109990;27;20238;-70
2023/01/29 06:47:01;;;;;;;16.70;12.03;;;0.50;99.90;;;;;;5130245;27;20247;-72
2023/01/29 06:49:28;;;;;;;18.77;12.20;;;0.50;99.90;;;;;;5135490;27;20296;-72
2023/01/29 06:51:55;;;;;;;16.00;12.00;;;0.50;99.90;;;;;;5108678;28;20239;-72
2023/01/29 06:54:21;;;;;;;17.43;11.90;;;0.50;99.90;;;;;;5123718;27;20232;-72
2023/01/29 06:56:48;;;;;;;15.60;12.17;;;0.50;99.90;;;;;;5111423;27;20233;-71
2023/01/29 06:59:15;;;;;;;15.23;11.37;;;0.50;99.90;;;;;;5108274;27;20784;-71
2023/01/29 07:01:43;;;;;;;15.60;12.57;;;0.50;99.90;;;;;;5108479;28;20289;-71
2023/01/29 07:04:11;;;;;;;18.63;12.30;;;0.50;99.90;;;;;;5128128;27;20205;-72
2023/01/29 07:06:38;;;;;;;17.10;12.37;;;0.50;99.90;;;;;;5128827;27;20730;-71
2023/01/29 07:09:05;;;;;;;15.13;12.10;;;0.50;99.90;;;;;;5128725;27;20746;-72
2023/01/29 07:11:36;;;;;;;17.00;12.47;;;0.60;99.90;;;;;;5125294;27;20640;-71
2023/01/29 07:14:03;;;;;;;17.47;12.50;;;0.50;99.90;;;;;;5128429;27;20214;-71
2023/01/29 07:16:30;;;;;;;17.73;12.53;;;0.50;99.90;;;;;;5134863;27;20734;-71
2023/01/29 07:18:57;;;;;;;16.57;11.90;;;0.50;99.90;;;;;;5138716;27;20719;-72
2023/01/29 07:21:25;;;;;;;18.23;12.80;;;0.50;99.90;;;;;;5128472;28;20762;-73
2023/01/29 07:23:52;;;;;;;17.40;13.13;;;0.50;99.90;;;;;;5128601;28;20757;-73
2023/01/29 07:26:19;;;;;;;18.67;13.27;;;0.50;99.90;;;;;;5128633;28;20601;-72
2023/01/29 07:28:45;;;;;;;19.13;13.33;;;0.50;99.90;;;;;;5129116;27;20300;-72
2023/01/29 07:31:14;;;;;;;18.63;12.73;;;0.50;99.90;;;;;;5129020;28;20292;-72
2023/01/29 07:33:42;;;;;;;17.43;12.70;;;0.50;99.90;;;;;;5128677;28;20292;-72
2023/01/29 07:36:10;;;;;;;18.90;12.60;;;0.50;99.90;;;;;;5114097;28;20305;-71
2023/01/29 07:38:38;;;;;;;21.50;14.00;;;0.60;99.90;;;;;;5114862;28;20292;-71
2023/01/29 07:41:06;;;;;;;19.07;13.17;;;0.50;99.90;;;;;;5107900;28;20317;-71
2023/01/29 07:43:33;;;;;;;19.63;13.27;;;0.50;99.90;;;;;;5107711;28;20251;-71
2023/01/29 07:46:02;;;;;;;22.20;13.33;;;0.50;99.90;;;;;;5112182;27;20707;-71
2023/01/29 07:48:29;;;;;;;22.97;13.80;;;0.50;99.90;;;;;;5143015;27;20211;-71
2023/01/29 07:50:57;;;;;;;20.23;13.23;;;0.50;99.90;;;;;;5127866;27;20633;-71
2023/01/29 07:53:24;;;;;;;21.57;13.67;;;0.50;99.90;;;;;;5127823;28;20213;-71
2023/01/29 07:55:53;;;;;;;25.13;14.57;;;0.50;99.90;;;;;;5127554;28;20233;-71
2023/01/29 07:58:20;;;;;;;21.40;14.17;;;0.50;99.90;;;;;;5128225;28;20233;-71
2023/01/29 08:00:47;;;;;;;21.40;14.17;;;0.60;99.90;;;;;;5128082;28;20206;-69
2023/01/29 08:03:16;;;;;;;20.30;13.80;;;0.50;99.90;;;;;;5127389;28;20941;-70
2023/01/29 08:05:42;;;;;;;22.13;13.90;;;0.50;99.90;;;;;;5128199;28;20723;-71
2023/01/29 08:08:10;;;;;;;19.57;12.97;;;0.60;99.90;;;;;;5128097;28;20320;-70
2023/01/29 08:10:38;;;;;;;22.47;14.50;;;0.50;99.90;;;;;;5127501;28;20656;-71
2023/01/29 08:13:06;;;;;;;22.33;15.20;;;0.60;99.90;;;;;;5127896;28;20297;-71
2023/01/29 08:15:34;;;;;;;24.30;15.00;;;0.50;99.90;;;;;;5127329;27;20246;-69
2023/01/29 08:18:02;;;;;;;26.03;15.37;;;0.60;99.90;;;;;;5147378;27;20320;-70
2023/01/29 08:20:29;;;;;;;25.07;14.13;;;0.60;99.90;;;;;;5148170;27;20295;-70
2023/01/29 08:23:01;;;;;;;23.30;14.17;;;0.60;99.90;;;;;;5132931;27;20244;-69
2023/01/29 08:25:28;;;;;;;24.03;15.13;;;0.60;99.90;;;;;;5106887;28;20695;-70
2023/01/29 08:27:55;;;;;;;25.43;14.53;;;0.60;99.90;;;;;;5106903;27;20255;-70
2023/01/29 08:30:24;;;;;;;21.73;13.90;;;0.60;99.90;;;;;;5108034;28;20245;-70
2023/01/29 08:32:51;;;;;;;25.80;15.80;;;0.70;99.90;;;;;;5122832;27;20193;-70
2023/01/29 08:35:18;;;;;;;22.83;14.73;;;0.60;99.90;;;;;;5131493;27;20274;-70
2023/01/29 08:37:52;;;;;;;23.00;14.67;;;0.70;99.90;;;;;;5122509;27;20241;-70
2023/01/29 08:40:18;;;;;;;22.33;14.50;;;0.70;99.90;;;;;;5108570;28;20564;-70
2023/01/29 08:42:45;;;;;;;24.63;14.50;;;0.70;99.90;;;;;;5108287;28;20914;-71
2023/01/29 08:45:12;;;;;;;24.70;14.70;;;0.80;99.90;;;;;;5109304;27;20651;-70
2023/01/29 08:47:45;;;;;;;24.17;14.53;;;0.70;99.90;;;;;;5138764;27;20209;-70
2023/01/29 08:50:12;;;;;;;25.17;15.60;;;0.70;99.90;;;;;;5108410;28;20212;-70
2023/01/29 08:52:39;;;;;;;24.73;14.57;;;0.70;99.90;;;;;;5108667;28;20233;-71
2023/01/29 08:55:07;;;;;;;22.57;14.10;;;0.80;99.90;;;;;;5122943;27;20225;-71
2023/01/29 08:57:34;;;;;;;22.87;14.60;;;0.80;99.90;;;;;;5108125;27;20731;-70
2023/01/29 09:00:01;;;;;;;25.13;14.93;;;0.80;99.90;;;;;;5108817;28;20550;-70
2023/01/29 09:02:27;;;;;;;25.63;14.37;;;0.80;99.90;;;;;;5108309;28;20268;-70
2023/01/29 09:04:56;;;;;;;23.83;14.67;;;0.80;99.90;;;;;;5108716;28;20214;-70
2023/01/29 09:07:23;;;;;;;21.80;14.63;;;0.90;99.90;;;;;;5125009;27;20200;-70
2023/01/29 09:09:49;;;;;;;20.63;14.43;;;0.90;99.90;;;;;;5128412;27;20285;-71
2023/01/29 09:12:16;;;;;;;20.50;13.93;;;0.90;99.90;;;;;;5128929;27;20853;-70
2023/01/29 09:14:43;;;;;;;22.03;14.53;;;0.90;99.90;;;;;;5128324;27;21217;-70
2023/01/29 09:17:10;;;;;;;22.37;14.20;;;0.90;99.90;;;;;;5141170;27;20204;-71
2023/01/29 09:19:37;;;;;;;22.67;13.47;;;1.00;99.90;;;;;;5108961;27;21227;-71
2023/01/29 09:22:05;;;;;;;21.87;14.17;;;1.00;99.90;;;;;;5114110;27;20321;-71
2023/01/29 09:24:33;;;;;;;21.83;14.60;;;1.00;99.90;;;;;;5128800;27;20308;-71
2023/01/29 09:27:00;;;;;;;21.87;13.17;;;1.00;99.90;;;;;;5117147;27;20205;-71
2023/01/29 09:29:27;;;;;;;20.13;13.37;;;1.00;99.90;;;;;;5108243;27;20297;-71
2023/01/29 09:31:54;;;;;;;20.87;12.87;;;1.00;99.90;;;;;;5115583;27;20304;-71
2023/01/29 09:34:21;;;;;;;20.00;12.37;;;1.20;99.90;;;;;;5128412;27;20219;-70
2023/01/29 09:36:48;;;;;;;17.53;12.50;;;1.10;99.90;;;;;;5128448;27;20654;-71
2023/01/29 09:39:16;;;;;;;18.47;11.73;;;1.10;99.90;;;;;;5128702;27;20205;-71
2023/01/29 09:41:53;;;;;;;19.83;12.50;;;1.10;99.90;;;;;;5127102;27;20225;-70
2023/01/29 09:44:29;;;;;;;19.13;12.47;;;1.20;99.90;;;;;;5108006;28;20860;-70
2023/01/29 09:46:59;;;;;;;18.50;12.47;;;1.30;99.90;;;;;;5129029;27;20300;-70
2023/01/29 09:49:31;;;;;;;17.53;12.13;;;1.30;99.90;;;;;;5134231;27;20254;-70
2023/01/29 09:52:02;;;;;;;17.00;12.37;;;1.30;99.90;;;;;;5131612;27;20194;-70
2023/01/29 09:54:35;;;;;;;15.47;11.20;;;1.40;99.90;;;;;;5109481;27;20273;-71
2023/01/29 09:57:02;;;;;;;13.80;11.17;;;1.50;99.90;;;;;;5109274;28;20281;-71
2023/01/29 09:59:31;;;;;;;15.87;11.27;;;1.60;99.90;;;;;;5118574;27;20443;-70
2023/01/29 10:02:10;;;;;;;17.90;11.97;;;1.60;99.90;;;;;;5149889;27;20205;-72
2023/01/29 10:04:52;;;;;;;15.20;10.90;;;1.70;99.90;;;;;;5150365;27;20189;-71
2023/01/29 10:07:54;;;;;;;15.47;11.87;;;1.70;99.90;;;;;;5132971;27;20769;-71
2023/01/29 10:10:35;;;;;;;14.93;11.37;;;1.70;99.90;;;;;;5129407;27;20670;-71
2023/01/29 10:13:11;;;;;;;16.03;10.83;;;1.70;99.90;;;;;;5129221;27;20733;-70
2023/01/29 10:15:50;;;;;;;13.87;10.70;;;1.80;99.90;;;;;;5129421;27;20313;-71
2023/01/29 10:18:58;;;;;;;12.17;9.93;;;1.80;99.90;;;;;;5108442;28;20613;-71
2023/01/29 10:21:50;;;;;;;15.33;10.20;;;1.80;99.90;;;;;;5103000;28;20205;-70
2023/01/29 10:24:26;;;;;;;13.17;9.60;;;1.80;99.90;;;;;;5129338;27;20277;-70
2023/01/29 10:26:55;;;;;;;13.13;9.60;;;1.90;99.90;;;;;;5129344;27;20284;-71
2023/01/29 10:29:22;;;;;;;12.93;10.03;;;2.00;99.90;;;;;;5127443;27;21050;-70
2023/01/29 10:31:54;;;;;;;13.53;9.93;;;2.10;99.90;;;;;;5112904;27;20252;-71
2023/01/29 10:34:29;;;;;;;15.87;9.30;;;2.10;99.90;;;;;;5108639;28;20277;-70
2023/01/29 10:36:56;;;;;;;12.03;9.30;;;2.20;99.90;;;;;;5116945;27;20303;-70
2023/01/29 10:39:25;;;;;;;11.60;9.37;;;2.20;99.90;;;;;;5128462;27;20205;-71
2023/01/29 10:42:13;;;;;;;13.27;9.47;;;2.30;99.90;;;;;;5128799;27;20262;-70
2023/01/29 10:44:53;;;;;;;11.37;9.67;;;2.40;99.90;;;;;;5128596;27;20317;-71
2023/01/29 10:47:48;;;;;;;10.83;9.40;;;2.40;99.90;;;;;;5112717;27;20200;-71
2023/01/29 10:50:26;;;;;;;10.77;8.67;;;2.40;99.90;;;;;;5108659;28;20281;-71
2023/01/29 10:53:08;;;;;;;11.20;9.13;;;2.30;99.90;;;;;;5107610;28;20201;-71
2023/01/29 10:55:46;;;;;;;12.03;8.93;;;2.30;99.90;;;;;;5118238;27;20245;-71
2023/01/29 10:58:23;;;;;;;12.40;9.10;;;2.40;99.90;;;;;;5128769;27;20316;-71
2023/01/29 11:00:51;;;;;;;10.83;8.80;;;2.40;99.90;;;;;;5128847;27;20706;-71
2023/01/29 11:03:23;;;;;;;11.10;9.00;;;2.40;99.90;;;;;;5121316;27;20209;-70
2023/01/29 11:05:57;;;;;;;12.50;9.73;;;2.50;99.90;;;;;;5114859;27;20186;-71
2023/01/29 11:08:29;;;;;;;9.90;8.67;;;2.50;99.90;;;;;;5128987;27;20190;-71
2023/01/29 11:11:06;;;;;;;12.47;8.70;;;2.50;99.90;;;;;;5115156;27;20192;-70
2023/01/29 11:13:40;;;;;;;10.20;8.47;;;2.60;99.90;;;;;;5128628;27;20537;-71
2023/01/29 11:16:09;;;;;;;12.13;8.27;;;2.60;99.90;;;;;;5131544;27;20311;-71
2023/01/29 11:18:55;;;;;;;9.33;8.33;;;2.60;99.90;;;;;;5130809;27;20210;-71
2023/01/29 11:21:23;;;;;;;9.07;8.10;;;2.60;99.90;;;;;;5108143;28;20297;-71
2023/01/29 11:23:50;;;;;;;11.07;8.70;;;2.60;99.90;;;;;;5108026;28;20262;-71
2023/01/29 11:26:21;;;;;;;9.27;8.37;;;2.70;99.90;;;;;;5108243;28;20202;-71
2023/01/29 11:28:50;;;;;;;10.30;8.57;;;2.60;99.90;;;;;;5107542;28;20190;-71
2023/01/29 11:31:25;;;;;;;10.30;8.37;;;2.70;99.90;;;;;;5108763;28;20298;-71
2023/01/29 11:34:01;;;;;;;10.77;8.70;;;2.70;99.90;;;;;;5121571;28;20205;-71
2023/01/29 11:36:35;;;;;;;12.03;8.80;;;2.70;99.90;;;;;;5124625;28;20241;-71
2023/01/29 11:39:20;;;;;;;9.63;8.30;;;2.70;99.90;;;;;;5122014;28;20975;-71
2023/01/29 11:41:50;;;;;;;10.40;8.80;;;2.70;99.90;;;;;;5108026;28;20206;-71
2023/01/29 11:44:30;;;;;;;10.97;7.90;;;2.70;99.90;;;;;;5108090;28;20229;-71
2023/01/29 11:47:09;;;;;;;8.83;7.40;;;2.80;99.90;;;;;;5107879;28;20193;-71
2023/01/29 11:49:37;;;;;;;10.00;8.03;;;2.80;99.90;;;;;;5106542;28;20209;-71
2023/01/29 11:52:07;;;;;;;11.20;8.83;;;2.90;99.90;;;;;;5110232;27;20226;-71
2023/01/29 11:54:38;;;;;;;9.60;8.20;;;2.90;99.90;;;;;;5107267;28;20305;-71
2023/01/29 11:57:05;;;;;;;9.27;8.00;;;2.90;99.90;;;;;;5123085;28;20217;-71
2023/01/29 11:59:47;;;;;;;9.87;8.10;;;2.90;99.90;;;;;;5128131;28;20622;-71
2023/01/29 12:02:31;;;;;;;10.10;7.90;;;2.90;99.90;;;;;;5128301;28;20664;-71
2023/01/29 12:05:02;;;;;;;9.33;7.67;;;2.90;99.90;;;;;;5116012;28;20199;-72
2023/01/29 12:07:29;;;;;;;10.00;8.60;;;3.00;99.90;;;;;;5111573;28;20194;-71
2023/01/29 12:09:58;;;;;;;8.77;7.73;;;3.00;99.90;;;;;;5130151;27;20306;-70
2023/01/29 12:12:36;;;;;;;13.53;10.67;;;3.10;99.90;;;;;;5131826;27;20208;-71
2023/01/29 12:15:18;;;;;;;12.63;10.80;;;3.10;99.90;;;;;;5131387;27;20193;-71
2023/01/29 12:18:06;;;;;;;9.03;7.60;;;3.10;99.90;;;;;;5148475;27;20811;-70
2023/01/29 12:20:39;;;;;;;9.27;7.67;;;3.20;99.90;;;;;;5110644;28;20234;-71
2023/01/29 12:23:21;;;;;;;8.50;7.57;;;3.20;99.90;;;;;;5125535;27;20288;-71
2023/01/29 12:25:55;;;;;;;8.70;7.80;;;3.10;99.90;;;;;;5124051;27;20277;-71
2023/01/29 12:28:33;;;;;;;9.27;8.10;;;3.10;99.90;;;;;;5111142;28;20244;-71
2023/01/29 12:31:11;;;;;;;11.87;8.20;;;3.10;99.90;;;;;;5118693;27;20667;-71
2023/01/29 12:33:46;;;;;;;9.50;8.40;;;3.10;99.90;;;;;;5119492;27;20305;-71
2023/01/29 12:36:19;;;;;;;9.17;7.90;;;3.10;99.90;;;;;;5110953;28;20280;-71
2023/01/29 12:38:46;;;;;;;12.80;8.67;;;3.10;99.90;;;;;;5111024;27;20744;-70
2023/01/29 12:41:28;;;;;;;10.70;8.13;;;3.10;99.90;;;;;;5112445;27;20657;-71
2023/01/29 12:43:59;;;;;;;10.37;9.27;;;3.10;99.90;;;;;;5111250;27;20654;-71
2023/01/29 12:46:31;;;;;;;10.77;8.87;;;3.00;99.90;;;;;;5122290;27;20682;-71
2023/01/29 12:49:07;;;;;;;10.97;8.13;;;3.00;99.90;;;;;;5137255;27;20237;-71
2023/01/29 12:51:38;;;;;;;10.47;8.27;;;3.00;99.90;;;;;;5110893;28;20221;-71
2023/01/29 12:54:09;;;;;;;9.20;8.00;;;3.00;99.90;;;;;;5110697;28;20206;-71
2023/01/29 12:56:39;;;;;;;9.90;8.23;;;3.00;99.90;;;;;;5110524;28;20739;-72
2023/01/29 12:59:17;;;;;;;10.37;9.00;;;3.00;99.90;;;;;;5126588;27;20320;-72
2023/01/29 13:01:50;;;;;;;11.07;9.40;;;3.00;99.90;;;;;;5131191;27;20468;-71
2023/01/29 13:04:25;;;;;;;10.90;9.17;;;3.00;99.90;;;;;;5130467;27;20280;-71
2023/01/29 13:06:58;;;;;;;11.27;9.17;;;3.00;99.90;;;;;;5131278;27;20272;-71
2023/01/29 13:09:28;;;;;;;11.27;9.03;;;3.00;99.90;;;;;;5128835;27;20198;-71
2023/01/29 13:12:00;;;;;;;10.57;8.80;;;2.90;99.90;;;;;;5131334;27;20280;-71
2023/01/29 13:14:33;;;;;;;11.67;9.30;;;2.90;99.90;;;;;;5126004;27;20739;-71
2023/01/29 13:17:09;;;;;;;11.50;8.40;;;3.00;99.90;;;;;;5131315;27;20249;-71
2023/01/29 13:19:42;;;;;;;11.60;8.53;;;3.00;99.90;;;;;;5130803;27;20627;-71
2023/01/29 13:22:17;;;;;;;12.60;8.97;;;3.00;99.90;;;;;;5128821;27;20201;-71
2023/01/29 13:24:44;;;;;;;12.70;8.67;;;3.00;99.90;;;;;;5115273;27;20201;-72
2023/01/29 13:27:22;;;;;;;9.67;8.30;;;3.00;99.90;;;;;;5117211;27;20296;-71
2023/01/29 13:29:49;;;;;;;10.90;8.80;;;2.90;99.90;;;;;;5114481;27;20241;-71
2023/01/29 13:32:24;;;;;;;10.80;8.53;;;3.00;99.90;;;;;;5127392;27;20538;-71